createdAt,value
2022-12-23T00:01:38.005Z,5.82
2022-12-23T00:04:05.965Z,5.83
2022-12-23T00:06:33.931Z,5.84
2022-12-23T00:09:01.549Z,5.84
2022-12-23T00:11:29.543Z,5.83
2022-12-23T00:14:20.886Z,5.88
2022-12-23T00:16:50.719Z,5.90
2022-12-23T00:19:19.391Z,5.87
2022-12-23T00:21:48.655Z,5.86
2022-12-23T00:24:16.558Z,5.87
2022-12-23T00:26:44.277Z,5.86
2022-12-23T00:29:11.953Z,5.87
2022-12-23T00:31:39.633Z,5.87
2022-12-23T00:34:07.407Z,5.87
2022-12-23T00:36:35.093Z,5.90
2022-12-23T00:39:21.392Z,5.94
2022-12-23T00:42:07.695Z,5.92
2022-12-23T00:44:35.397Z,5.96
2022-12-23T00:47:03.064Z,5.96
2022-12-23T00:49:42.862Z,5.95
2022-12-23T00:52:13.843Z,5.89
2022-12-23T00:54:41.601Z,5.87
2022-12-23T00:57:09.480Z,5.87
2022-12-23T00:59:37.485Z,5.89
2022-12-23T01:02:24.213Z,5.89
2022-12-23T01:05:10.623Z,5.90
2022-12-23T01:07:38.566Z,5.93
2022-12-23T01:10:06.728Z,5.92
2022-12-23T01:12:34.430Z,5.93
2022-12-23T01:15:02.091Z,5.89
2022-12-23T01:17:30.017Z,5.88
2022-12-23T01:19:57.697Z,5.88
2022-12-23T01:22:25.348Z,5.88
2022-12-23T01:24:52.924Z,5.87
2022-12-23T01:27:20.506Z,5.86
2022-12-23T01:29:48.469Z,5.90
2022-12-23T01:32:16.204Z,5.91
2022-12-23T01:34:44.018Z,5.94
2022-12-23T01:37:11.797Z,5.96
2022-12-23T01:39:39.501Z,5.96
2022-12-23T01:42:32.760Z,5.99
2022-12-23T01:45:01.606Z,5.99
2022-12-23T01:47:34.836Z,5.98
2022-12-23T01:50:15.597Z,5.99
2022-12-23T01:53:09.787Z,5.99
2022-12-23T01:55:52.591Z,5.99
2022-12-23T01:58:23.001Z,6.05
2022-12-23T02:01:09.797Z,6.05
2022-12-23T02:03:44.314Z,6.05
2022-12-23T02:06:53.483Z,6.05
2022-12-23T02:09:29.564Z,6.01
2022-12-23T02:12:29.415Z,6.00
2022-12-23T02:15:21.761Z,5.96
2022-12-23T02:17:58.270Z,5.96
2022-12-23T02:20:44.522Z,5.98
2022-12-23T02:23:43.282Z,6.03
2022-12-23T02:26:32.256Z,6.08
2022-12-23T02:29:15.097Z,6.08
2022-12-23T02:48:10.395Z,6.24
2022-12-23T02:50:41.532Z,6.27
2022-12-23T02:53:43.482Z,6.24
2022-12-23T02:56:14.518Z,6.25
2022-12-23T02:58:50.258Z,6.25
2022-12-23T03:01:19.679Z,6.32
2022-12-23T03:03:49.488Z,6.33
2022-12-23T03:06:23.083Z,6.33
2022-12-23T03:08:54.036Z,6.37
2022-12-23T03:11:22.409Z,6.35
2022-12-23T03:14:33.036Z,6.35
2022-12-23T03:17:17.803Z,6.36
2022-12-23T03:20:18.979Z,6.41
2022-12-23T03:22:46.600Z,6.43
2022-12-23T03:25:26.815Z,6.46
2022-12-23T03:28:09.464Z,6.49
2022-12-23T03:30:39.424Z,6.49
2022-12-23T03:33:19.518Z,6.50
2022-12-23T03:35:52.764Z,6.52
2022-12-23T03:38:22.791Z,6.51
2022-12-23T03:41:03.194Z,6.50
2022-12-23T03:43:37.119Z,6.50
2022-12-23T03:46:15.828Z,6.50
2022-12-23T03:48:54.360Z,6.54
2022-12-23T03:51:36.445Z,6.53
2022-12-23T03:54:10.249Z,6.55
2022-12-23T03:56:53.988Z,6.55
2022-12-23T03:59:26.865Z,6.57
2022-12-23T04:02:00.169Z,6.55
2022-12-23T04:04:43.115Z,6.55
2022-12-23T04:07:15.653Z,6.54
2022-12-23T04:09:44.209Z,6.54
2022-12-23T04:12:14.286Z,6.57
2022-12-23T04:14:48.971Z,6.57
2022-12-23T04:17:17.792Z,6.53
2022-12-23T04:19:46.597Z,6.53
2022-12-23T04:22:16.165Z,6.52
2022-12-23T04:24:44.029Z,6.50
2022-12-23T04:27:16.515Z,6.49
2022-12-23T04:29:44.502Z,6.49
2022-12-23T04:32:12.229Z,6.50
2022-12-23T04:34:39.890Z,6.52
2022-12-23T04:37:07.700Z,6.54
2022-12-23T04:39:35.353Z,6.56
2022-12-23T04:42:03.713Z,6.60
2022-12-23T04:44:31.466Z,6.63
2022-12-23T04:46:59.262Z,6.62
2022-12-23T04:49:27.194Z,6.62
2022-12-23T04:51:55.086Z,6.60
2022-12-23T04:54:22.861Z,6.62
2022-12-23T04:56:50.778Z,6.63
2022-12-23T04:59:18.511Z,6.59
2022-12-23T05:01:46.575Z,6.52
2022-12-23T05:04:14.475Z,6.49
2022-12-23T05:06:42.285Z,6.44
2022-12-23T05:09:10.232Z,6.39
2022-12-23T05:11:42.154Z,6.34
2022-12-23T05:14:11.656Z,6.28
2022-12-23T05:16:39.823Z,6.21
2022-12-23T05:19:07.984Z,6.20
2022-12-23T05:21:35.802Z,6.19
2022-12-23T05:24:03.664Z,6.17
2022-12-23T05:26:31.427Z,6.17
2022-12-23T05:28:59.237Z,6.17
2022-12-23T05:31:26.968Z,6.15
2022-12-23T05:33:54.874Z,6.15
2022-12-23T05:36:22.611Z,6.13
2022-12-23T05:38:50.290Z,6.15
2022-12-23T05:41:17.998Z,6.15
2022-12-23T05:43:45.836Z,6.13
2022-12-23T05:46:13.619Z,6.13
2022-12-23T05:48:41.433Z,6.12
2022-12-23T05:51:09.095Z,6.09
2022-12-23T05:53:36.742Z,6.03
2022-12-23T05:56:06.108Z,6.01
2022-12-23T05:58:34.118Z,5.95
2022-12-23T06:06:23.098Z,5.88
2022-12-23T06:08:55.782Z,5.84
2022-12-23T06:11:27.687Z,5.77
2022-12-23T06:13:55.589Z,5.74
2022-12-23T06:16:23.368Z,5.73
2022-12-23T06:18:55.257Z,5.69
2022-12-23T06:21:23.260Z,5.65
2022-12-23T06:23:51.665Z,5.62
2022-12-23T06:26:19.470Z,5.56
2022-12-23T06:28:47.319Z,5.54
2022-12-23T06:31:15.382Z,5.51
2022-12-23T06:33:43.220Z,5.49
2022-12-23T06:36:11.043Z,5.44
2022-12-23T06:38:38.709Z,5.42
2022-12-23T06:41:07.690Z,5.39
2022-12-23T06:43:35.458Z,5.37
2022-12-23T06:46:03.350Z,5.36
2022-12-23T06:48:31.161Z,5.35
2022-12-23T06:50:58.820Z,5.34
2022-12-23T06:53:26.587Z,5.33
2022-12-23T06:56:02.114Z,5.32
2022-12-23T06:58:30.145Z,5.30
2022-12-23T07:00:58.002Z,5.29
2022-12-23T07:03:25.897Z,5.27
2022-12-23T07:05:53.750Z,5.24
2022-12-23T07:08:21.745Z,5.23
2022-12-23T07:10:49.446Z,5.22
2022-12-23T07:13:17.219Z,5.23
2022-12-23T07:15:44.957Z,5.23
2022-12-23T07:18:12.819Z,5.21
2022-12-23T07:20:40.807Z,5.21
2022-12-23T07:23:08.634Z,5.21
2022-12-23T07:25:36.401Z,5.21
2022-12-23T07:28:04.303Z,5.18
2022-12-23T07:30:32.017Z,5.19
2022-12-23T07:32:59.878Z,5.20
2022-12-23T07:35:28.216Z,5.19
2022-12-23T07:37:56.501Z,5.18
2022-12-23T07:40:24.967Z,5.18
2022-12-23T07:42:58.116Z,5.17
2022-12-23T07:45:27.664Z,5.18
2022-12-23T07:47:59.729Z,5.18
2022-12-23T07:50:27.620Z,5.18
2022-12-23T07:52:56.306Z,5.18
2022-12-23T07:55:24.042Z,5.21
2022-12-23T07:57:53.191Z,5.21
2022-12-23T08:00:21.304Z,5.22
2022-12-23T08:02:49.332Z,5.25
2022-12-23T08:05:17.418Z,5.26
2022-12-23T08:07:45.412Z,5.29
2022-12-23T08:10:13.042Z,5.33
2022-12-23T08:12:40.731Z,5.37
2022-12-23T08:15:09.305Z,5.43
2022-12-23T08:17:36.973Z,5.48
2022-12-23T08:35:54.676Z,5.81
2022-12-23T08:38:22.495Z,5.84
2022-12-23T08:40:50.134Z,5.86
2022-12-23T08:43:17.876Z,5.89
2022-12-23T08:45:45.779Z,5.92
2022-12-23T08:48:14.173Z,5.95
2022-12-23T08:50:44.482Z,5.97
2022-12-23T08:53:13.260Z,5.97
2022-12-23T08:55:45.934Z,5.97
2022-12-23T08:58:16.020Z,5.95
2022-12-23T09:00:43.688Z,5.99
2022-12-23T09:03:11.459Z,5.96
2022-12-23T09:05:41.471Z,5.98
2022-12-23T09:08:09.751Z,5.97
2022-12-23T09:10:42.729Z,5.98
2022-12-23T09:13:13.882Z,5.98
2022-12-23T09:15:45.750Z,6.00
2022-12-23T09:18:13.467Z,6.01
2022-12-23T09:20:41.191Z,6.02
2022-12-23T09:23:08.938Z,6.04
2022-12-23T09:25:37.162Z,6.08
2022-12-23T09:28:06.885Z,6.13
2022-12-23T09:30:34.656Z,6.16
2022-12-23T09:33:02.321Z,6.20
2022-12-23T09:35:30.089Z,6.23
2022-12-23T09:37:57.872Z,6.26
2022-12-23T09:40:30.726Z,6.31
2022-12-23T09:43:20.337Z,6.36
2022-12-23T09:46:19.333Z,6.33
2022-12-23T10:03:54.396Z,6.37
2022-12-23T10:06:27.253Z,6.33
2022-12-23T10:09:02.570Z,6.33
2022-12-23T10:11:37.187Z,6.34
2022-12-23T10:14:16.411Z,6.33
2022-12-23T10:16:50.571Z,6.30
2022-12-23T10:19:25.086Z,6.30
2022-12-23T10:22:02.232Z,6.28
2022-12-23T10:24:41.906Z,6.23
2022-12-23T10:27:22.574Z,6.26
2022-12-23T10:29:50.258Z,6.26
2022-12-23T10:33:03.837Z,6.26
2022-12-23T10:35:41.631Z,6.28
2022-12-23T10:38:23.455Z,6.29
2022-12-23T10:41:23.364Z,6.29
2022-12-23T10:44:03.209Z,6.31
2022-12-23T10:46:57.199Z,6.31
2022-12-23T10:49:43.099Z,6.33
2022-12-23T10:52:27.751Z,6.34
2022-12-23T10:54:55.475Z,6.36
2022-12-23T10:57:24.732Z,6.36
2022-12-23T10:59:52.518Z,6.33
2022-12-23T11:02:32.650Z,6.33
2022-12-23T11:05:00.425Z,6.33
2022-12-23T11:07:46.045Z,6.33
2022-12-23T11:10:23.535Z,6.33
2022-12-23T11:23:27.334Z,6.43
2022-12-23T11:26:02.448Z,6.44
2022-12-23T11:28:32.845Z,6.40
2022-12-23T11:31:11.595Z,6.39
2022-12-23T11:33:46.336Z,6.38
2022-12-23T11:36:13.982Z,6.34
2022-12-23T11:38:49.600Z,6.31
2022-12-23T11:41:29.568Z,6.30
2022-12-23T11:44:03.633Z,6.29
2022-12-23T11:46:34.070Z,6.31
2022-12-23T11:49:25.868Z,6.31
2022-12-23T11:52:11.912Z,6.34
2022-12-23T11:54:40.121Z,6.36
2022-12-23T11:57:19.129Z,6.41
2022-12-23T11:59:49.966Z,6.47
2022-12-23T12:02:26.169Z,6.52
2022-12-23T12:05:05.198Z,6.56
2022-12-23T12:07:33.677Z,6.60
2022-12-23T12:10:02.585Z,6.64
2022-12-23T12:12:30.511Z,6.69
2022-12-23T12:15:00.164Z,6.74
2022-12-23T12:17:37.589Z,6.80
2022-12-23T12:20:29.337Z,6.81
2022-12-23T12:23:09.185Z,6.83
2022-12-23T12:25:46.175Z,6.84
2022-12-23T12:28:21.109Z,6.85
2022-12-23T12:31:05.844Z,6.86
2022-12-23T12:33:43.913Z,6.87
2022-12-23T12:36:14.282Z,6.87
2022-12-23T12:38:45.781Z,6.89
2022-12-23T12:41:22.709Z,6.89
2022-12-23T12:44:33.027Z,6.92
2022-12-23T12:47:36.074Z,6.92
2022-12-23T12:50:12.122Z,6.96
2022-12-23T12:52:41.880Z,6.99
2022-12-23T12:55:20.037Z,6.99
2022-12-23T12:57:47.815Z,7.00
2022-12-23T13:00:21.761Z,6.98
2022-12-23T13:03:28.083Z,6.95
2022-12-23T13:06:14.981Z,6.92
2022-12-23T13:09:00.049Z,6.93
2022-12-23T13:11:38.063Z,6.90
2022-12-23T13:14:34.006Z,6.89
2022-12-23T13:17:24.464Z,6.84
2022-12-23T13:19:59.409Z,6.81
2022-12-23T13:22:37.783Z,6.82
2022-12-23T13:25:17.761Z,6.79
2022-12-23T13:27:58.503Z,6.78
2022-12-23T13:30:31.514Z,6.77
2022-12-23T13:33:23.441Z,6.72
2022-12-23T13:36:05.316Z,6.73
2022-12-23T13:39:00.520Z,6.69
2022-12-23T13:41:43.849Z,6.67
2022-12-23T13:44:18.298Z,6.65
2022-12-23T13:47:10.846Z,6.67
2022-12-23T13:49:41.431Z,6.66
2022-12-23T13:52:14.264Z,6.65
2022-12-23T13:55:06.879Z,6.63
2022-12-23T13:57:37.306Z,6.62
2022-12-23T14:00:17.317Z,6.62
2022-12-23T14:03:05.559Z,6.62
2022-12-23T14:05:38.795Z,6.60
2022-12-23T14:08:18.337Z,6.61
2022-12-23T14:11:24.174Z,6.63
2022-12-23T14:13:51.908Z,6.63
2022-12-23T14:16:44.734Z,6.63
2022-12-23T14:19:18.492Z,6.63
2022-12-23T14:21:48.963Z,6.64
2022-12-23T14:25:00.117Z,6.65
2022-12-23T14:27:49.016Z,6.62
2022-12-23T14:30:36.311Z,6.62
2022-12-23T14:33:13.954Z,6.63
2022-12-23T14:35:42.882Z,6.62
2022-12-23T14:38:13.894Z,6.64
2022-12-23T14:40:41.466Z,6.66
2022-12-23T14:43:33.239Z,6.63
2022-12-23T14:46:06.977Z,6.63
2022-12-23T14:48:34.663Z,6.61
2022-12-23T14:51:03.527Z,6.61
2022-12-23T14:53:33.993Z,6.62
2022-12-23T14:56:19.887Z,6.61
2022-12-23T14:58:58.626Z,6.62
2022-12-23T15:02:00.678Z,6.61
2022-12-23T15:04:35.338Z,6.61
2022-12-23T15:07:07.184Z,6.63
2022-12-23T15:09:40.162Z,6.63
2022-12-23T15:12:19.794Z,6.63
2022-12-23T15:14:52.865Z,6.63
2022-12-23T15:17:31.041Z,6.63
2022-12-23T15:20:10.849Z,6.64
2022-12-23T15:22:42.317Z,6.67
2022-12-23T15:25:29.009Z,6.67
2022-12-23T15:28:01.928Z,6.68
2022-12-23T15:30:35.749Z,6.72
2022-12-23T15:33:27.754Z,6.71
2022-12-23T15:35:55.507Z,6.71
2022-12-23T15:38:29.712Z,6.73
2022-12-23T15:41:05.941Z,6.75
2022-12-23T15:43:41.879Z,6.78
2022-12-23T15:46:28.542Z,6.79
2022-12-23T15:48:58.318Z,6.79
2022-12-23T15:52:06.274Z,6.80
2022-12-23T15:54:36.895Z,6.81
2022-12-23T15:57:05.060Z,6.84
2022-12-23T15:59:38.804Z,6.84
2022-12-23T16:05:26.628Z,6.87
2022-12-23T16:08:11.754Z,6.88
2022-12-23T16:10:41.288Z,6.88
2022-12-23T16:13:20.087Z,6.88
2022-12-23T16:15:48.029Z,6.87
2022-12-23T16:18:25.659Z,6.87
2022-12-23T16:20:56.891Z,6.89
2022-12-23T16:23:33.582Z,6.88
2022-12-23T16:26:02.375Z,6.89
2022-12-23T16:28:38.990Z,6.91
2022-12-23T16:31:08.159Z,6.90
2022-12-23T16:33:43.561Z,6.91
2022-12-23T16:36:21.271Z,6.92
2022-12-23T16:38:51.412Z,6.93
2022-12-23T16:41:20.064Z,6.95
2022-12-23T16:43:52.371Z,6.96
2022-12-23T16:46:23.483Z,6.95
2022-12-23T16:49:04.616Z,6.97
2022-12-23T16:51:34.292Z,6.96
2022-12-23T16:54:02.332Z,6.97
2022-12-23T16:56:36.468Z,6.99
2022-12-23T16:59:04.831Z,6.99
2022-12-23T17:01:39.409Z,7.00
2022-12-23T17:04:07.945Z,7.04
2022-12-23T17:06:37.273Z,7.05
2022-12-23T17:09:06.524Z,7.04
2022-12-23T17:11:43.338Z,7.05
2022-12-23T17:14:22.853Z,7.07
2022-12-23T17:16:51.820Z,7.07
2022-12-23T17:19:27.892Z,7.08
2022-12-23T17:22:01.824Z,7.09
2022-12-23T17:24:29.990Z,7.09
2022-12-23T17:26:57.902Z,7.09
2022-12-23T17:29:26.049Z,7.10
2022-12-23T17:31:54.593Z,7.13
2022-12-23T17:34:24.360Z,7.12
2022-12-23T17:36:52.891Z,7.12
2022-12-23T17:39:22.295Z,7.12
2022-12-23T17:41:50.270Z,7.13
2022-12-23T17:44:18.857Z,7.12
2022-12-23T17:46:46.948Z,7.13
2022-12-23T17:49:14.939Z,7.14
2022-12-23T17:51:43.256Z,7.14
2022-12-23T17:54:21.701Z,7.15
2022-12-23T17:56:50.067Z,7.16
2022-12-23T17:59:17.973Z,7.16
2022-12-23T18:01:45.952Z,7.15
2022-12-23T18:04:13.790Z,7.17
2022-12-23T18:06:41.818Z,7.18
2022-12-23T18:09:09.612Z,7.18
2022-12-23T18:11:44.996Z,7.17
2022-12-23T18:14:16.614Z,7.15
2022-12-23T18:16:44.528Z,7.13
2022-12-23T18:19:17.782Z,7.13
2022-12-23T18:21:45.907Z,7.12
2022-12-23T18:24:13.606Z,7.11
2022-12-23T18:26:41.889Z,7.11
2022-12-23T18:29:09.523Z,7.08
2022-12-23T18:31:45.328Z,7.05
2022-12-23T18:34:18.136Z,7.03
2022-12-23T18:36:48.274Z,7.03
2022-12-23T18:39:16.359Z,7.02
2022-12-23T18:41:44.095Z,7.01
2022-12-23T18:44:19.345Z,6.99
2022-12-23T18:46:48.268Z,6.99
2022-12-23T18:49:16.222Z,6.97
2022-12-23T18:51:44.038Z,6.92
2022-12-23T18:54:16.530Z,6.89
2022-12-23T18:56:44.429Z,6.86
2022-12-23T18:59:17.030Z,6.82
2022-12-23T19:05:07.276Z,6.77
2022-12-23T19:07:34.952Z,6.76
2022-12-23T19:10:05.821Z,6.74
2022-12-23T19:12:33.441Z,6.75
2022-12-23T19:15:01.090Z,6.75
2022-12-23T19:17:28.770Z,6.74
2022-12-23T19:19:56.425Z,6.69
2022-12-23T19:22:24.896Z,6.64
2022-12-23T19:25:05.388Z,6.60
2022-12-23T19:27:34.526Z,6.57
2022-12-23T19:30:03.848Z,6.54
2022-12-23T19:32:31.539Z,6.54
2022-12-23T19:34:59.126Z,6.52
2022-12-23T19:37:26.745Z,6.52
2022-12-23T19:39:54.360Z,6.49
2022-12-23T19:42:21.937Z,6.47
2022-12-23T19:44:49.622Z,6.45
2022-12-23T19:47:17.510Z,6.45
2022-12-23T19:49:45.138Z,6.47
2022-12-23T19:52:13.085Z,6.48
2022-12-23T19:54:40.726Z,6.44
2022-12-23T19:57:08.368Z,6.43
2022-12-23T19:59:36.017Z,6.44
2022-12-23T20:05:20.405Z,6.40
2022-12-23T20:07:48.005Z,6.34
2022-12-23T20:10:15.695Z,6.33
2022-12-23T20:12:43.385Z,6.31
2022-12-23T20:15:11.179Z,6.29
2022-12-23T20:17:38.810Z,6.29
2022-12-23T20:20:07.558Z,6.26
2022-12-23T20:22:35.195Z,6.24
2022-12-23T20:25:02.850Z,6.25
2022-12-23T20:27:30.582Z,6.26
2022-12-23T20:29:58.226Z,6.27
2022-12-23T20:32:25.946Z,6.27
2022-12-23T20:34:53.796Z,6.30
2022-12-23T20:37:21.447Z,6.30
2022-12-23T20:39:49.155Z,6.30
2022-12-23T20:42:16.792Z,6.32
2022-12-23T20:44:44.415Z,6.37
2022-12-23T20:47:12.073Z,6.40
2022-12-23T20:49:39.896Z,6.42
2022-12-23T20:52:07.496Z,6.40
2022-12-23T20:54:35.174Z,6.43
2022-12-23T20:57:02.928Z,6.43
2022-12-23T20:59:30.652Z,6.43
2022-12-23T21:01:59.320Z,6.44
2022-12-23T21:04:27.292Z,6.47
2022-12-23T21:06:54.966Z,6.45
2022-12-23T21:09:22.608Z,6.44
2022-12-23T21:11:50.279Z,6.41
2022-12-23T21:14:18.115Z,6.37
2022-12-23T21:16:45.886Z,6.33
2022-12-23T21:19:17.375Z,6.33
2022-12-23T21:21:45.531Z,6.37
2022-12-23T21:24:14.080Z,6.39
2022-12-23T21:26:42.030Z,6.37
2022-12-23T21:29:10.524Z,6.37
2022-12-23T21:31:40.929Z,6.37
2022-12-23T21:34:09.099Z,6.39
2022-12-23T21:36:38.829Z,6.41
2022-12-23T21:39:08.472Z,6.44
2022-12-23T21:41:39.009Z,6.46
2022-12-23T21:44:06.899Z,6.44
2022-12-23T21:46:35.281Z,6.41
2022-12-23T21:49:03.235Z,6.37
2022-12-23T21:51:39.649Z,6.35
2022-12-23T21:54:09.817Z,6.35
2022-12-23T21:56:38.274Z,6.37
2022-12-23T21:59:12.895Z,6.31
2022-12-23T22:01:42.307Z,6.26
2022-12-23T22:04:10.322Z,6.25
2022-12-23T22:06:40.757Z,6.24
2022-12-23T22:09:08.776Z,6.21
2022-12-23T22:11:37.033Z,6.20
2022-12-23T22:14:07.562Z,6.19
2022-12-23T22:16:35.915Z,6.17
2022-12-23T22:19:05.644Z,6.17
2022-12-23T22:21:33.769Z,6.16
2022-12-23T22:24:02.067Z,6.14
2022-12-23T22:26:32.270Z,6.14
2022-12-23T22:29:02.479Z,6.12
2022-12-23T22:31:49.520Z,6.07
2022-12-23T22:34:20.304Z,6.03
2022-12-23T22:36:49.132Z,5.98
2022-12-23T22:39:21.099Z,5.96
2022-12-23T22:41:50.922Z,5.95
2022-12-23T22:44:19.754Z,5.91
2022-12-23T22:46:48.393Z,5.89
2022-12-23T22:49:16.785Z,5.87
2022-12-23T22:51:44.851Z,5.87
2022-12-23T22:54:12.654Z,5.88
2022-12-23T22:56:40.250Z,5.91
2022-12-23T22:59:12.320Z,5.93
2022-12-23T23:01:39.971Z,5.99
2022-12-23T23:04:07.991Z,6.01
2022-12-23T23:06:38.484Z,6.07
2022-12-23T23:09:08.719Z,6.16
2022-12-23T23:11:36.421Z,6.24
2022-12-23T23:14:04.652Z,6.32
2022-12-23T23:16:33.476Z,6.32
2022-12-23T23:19:01.994Z,6.33
2022-12-23T23:21:29.711Z,6.34
2022-12-23T23:23:57.402Z,6.37
2022-12-23T23:26:27.328Z,6.36
2022-12-23T23:28:56.263Z,6.40
2022-12-23T23:31:42.334Z,6.39
2022-12-23T23:34:11.368Z,6.39
2022-12-23T23:36:39.380Z,6.38
2022-12-23T23:39:07.548Z,6.35
2022-12-23T23:41:35.773Z,6.34
2022-12-23T23:44:03.721Z,6.34
2022-12-23T23:46:31.788Z,6.32
2022-12-23T23:48:59.982Z,6.32
2022-12-23T23:51:27.658Z,6.32
2022-12-23T23:53:55.294Z,6.32
2022-12-23T23:56:25.744Z,6.35
2022-12-23T23:58:54.838Z,6.37
